Terminal Aerodrome Forecast
Issued by NWS

Home | Current Version | Previous Version | Text Only | Print | Product List | Glossary On
Versions: 1 2 3 4 5 6 7 8 9 10 11 12 13
662
FTUS45 KRIW 151733
TAFLND
TAF
KLND 151733Z 1518/1618 VRB06KT P6SM SCT200
     FM161100 34007KT P6SM VCSH SCT020 OVC060
     FM161400 04006KT 2SM -SN SCT004 OVC012=

USA.gov is the U.S. government's official web portal to all federal, state and local government web resources and services.